Beacon Hill, Washington
Current Conditions -  °F | °C
As of 5:53 PM on Friday 19 Dec 2014 (Local Time) from KBFI Reporting Station
Broken Clouds Broken Clouds  
Wind Chill: 51°   Ceiling: 8000
Heat Index: 51°   Visibility: 10mi
Dew Point: 38°   Wind: 7mph
Humidity: 61%   Direction: 170°S
Pressure: 29.95"   Gusts: NA
Location:  47.5852°N, 122.3°W
Report Text: KBFI 200153Z 17006KT 10SM FEW060 BKN080 11/03 A2995 RMK AO2 SLP143 T01060033
Loading
Personal Weather Stations






























Interactive Weather Map New forecast layout! Learn more

10-Day Weather Forecast

Advertisements
Track Severe Weather on mobile